sensor_id;sensor_type;location;lat;lon;timestamp;temperature;humidity
21861;DHT22;11095;48.066;8.540;2022-08-21T00:01:37;12.60;99.90
21861;DHT22;11095;48.066;8.540;2022-08-21T00:04:06;12.60;99.90
21861;DHT22;11095;48.066;8.540;2022-08-21T00:06:32;12.50;99.90
21861;DHT22;11095;48.066;8.540;2022-08-21T00:08:59;12.50;99.90
21861;DHT22;11095;48.066;8.540;2022-08-21T00:11:25;12.50;99.90
21861;DHT22;11095;48.066;8.540;2022-08-21T00:13:52;12.50;99.90
21861;DHT22;11095;48.066;8.540;2022-08-21T00:16:18;12.40;99.90
21861;DHT22;11095;48.066;8.540;2022-08-21T00:18:44;12.40;99.90
21861;DHT22;11095;48.066;8.540;2022-08-21T00:21:12;12.40;99.90
21861;DHT22;11095;48.066;8.540;2022-08-21T00:23:39;12.40;99.90
21861;DHT22;11095;48.066;8.540;2022-08-21T00:26:04;12.40;99.90
21861;DHT22;11095;48.066;8.540;2022-08-21T00:28:31;12.40;99.90
21861;DHT22;11095;48.066;8.540;2022-08-21T00:30:57;12.40;99.90
21861;DHT22;11095;48.066;8.540;2022-08-21T00:33:23;12.30;99.90
21861;DHT22;11095;48.066;8.540;2022-08-21T00:35:49;12.20;99.90
21861;DHT22;11095;48.066;8.540;2022-08-21T00:38:14;12.20;99.90
21861;DHT22;11095;48.066;8.540;2022-08-21T00:40:53;12.20;99.90
21861;DHT22;11095;48.066;8.540;2022-08-21T00:43:22;12.20;99.90
21861;DHT22;11095;48.066;8.540;2022-08-21T00:45:48;12.10;99.90
21861;DHT22;11095;48.066;8.540;2022-08-21T00:48:14;12.10;99.90
21861;DHT22;11095;48.066;8.540;2022-08-21T00:50:44;12.10;99.90
21861;DHT22;11095;48.066;8.540;2022-08-21T00:53:12;12.00;99.90
21861;DHT22;11095;48.066;8.540;2022-08-21T00:55:38;12.00;99.90
21861;DHT22;11095;48.066;8.540;2022-08-21T00:58:06;12.00;99.90
21861;DHT22;11095;48.066;8.540;2022-08-21T01:00:35;12.00;99.90
21861;DHT22;11095;48.066;8.540;2022-08-21T01:03:19;12.00;99.90
21861;DHT22;11095;48.066;8.540;2022-08-21T01:05:45;12.00;99.90
21861;DHT22;11095;48.066;8.540;2022-08-21T01:08:12;11.90;99.90
21861;DHT22;11095;48.066;8.540;2022-08-21T01:10:39;11.90;99.90
21861;DHT22;11095;48.066;8.540;2022-08-21T01:13:07;11.90;99.90
21861;DHT22;11095;48.066;8.540;2022-08-21T01:15:36;11.90;99.90
21861;DHT22;11095;48.066;8.540;2022-08-21T01:18:06;11.80;99.90
21861;DHT22;11095;48.066;8.540;2022-08-21T01:20:33;11.80;99.90
21861;DHT22;11095;48.066;8.540;2022-08-21T01:23:03;11.80;99.90
21861;DHT22;11095;48.066;8.540;2022-08-21T01:25:29;11.70;99.90
21861;DHT22;11095;48.066;8.540;2022-08-21T01:27:55;11.70;99.90
21861;DHT22;11095;48.066;8.540;2022-08-21T01:30:24;11.60;99.90
21861;DHT22;11095;48.066;8.540;2022-08-21T01:32:51;11.60;99.90
21861;DHT22;11095;48.066;8.540;2022-08-21T01:35:19;11.60;99.90
21861;DHT22;11095;48.066;8.540;2022-08-21T01:37:45;11.60;99.90
21861;DHT22;11095;48.066;8.540;2022-08-21T01:40:13;11.60;99.90
21861;DHT22;11095;48.066;8.540;2022-08-21T01:42:42;11.50;99.90
21861;DHT22;11095;48.066;8.540;2022-08-21T01:45:08;11.50;99.90
21861;DHT22;11095;48.066;8.540;2022-08-21T01:47:34;11.50;99.90
21861;DHT22;11095;48.066;8.540;2022-08-21T01:50:02;11.50;99.90
21861;DHT22;11095;48.066;8.540;2022-08-21T01:52:28;11.40;99.90
21861;DHT22;11095;48.066;8.540;2022-08-21T01:54:54;11.40;99.90
21861;DHT22;11095;48.066;8.540;2022-08-21T01:57:20;11.30;99.90
21861;DHT22;11095;48.066;8.540;2022-08-21T01:59:46;11.30;99.90
21861;DHT22;11095;48.066;8.540;2022-08-21T02:02:12;11.30;99.90
21861;DHT22;11095;48.066;8.540;2022-08-21T02:04:37;11.30;99.90
21861;DHT22;11095;48.066;8.540;2022-08-21T02:07:03;11.20;99.90
21861;DHT22;11095;48.066;8.540;2022-08-21T02:09:29;11.20;99.90
21861;DHT22;11095;48.066;8.540;2022-08-21T02:11:55;11.10;99.90
21861;DHT22;11095;48.066;8.540;2022-08-21T02:14:24;11.10;99.90
21861;DHT22;11095;48.066;8.540;2022-08-21T02:16:50;11.10;99.90
21861;DHT22;11095;48.066;8.540;2022-08-21T02:19:16;11.10;99.90
21861;DHT22;11095;48.066;8.540;2022-08-21T02:21:42;11.10;99.90
21861;DHT22;11095;48.066;8.540;2022-08-21T02:24:08;11.10;99.90
21861;DHT22;11095;48.066;8.540;2022-08-21T02:26:34;11.10;99.90
21861;DHT22;11095;48.066;8.540;2022-08-21T02:29:00;11.10;99.90
21861;DHT22;11095;48.066;8.540;2022-08-21T02:31:25;11.10;99.90
21861;DHT22;11095;48.066;8.540;2022-08-21T02:33:51;11.00;99.90
21861;DHT22;11095;48.066;8.540;2022-08-21T02:36:17;11.00;99.90
21861;DHT22;11095;48.066;8.540;2022-08-21T02:38:43;11.00;99.90
21861;DHT22;11095;48.066;8.540;2022-08-21T02:41:14;11.00;99.90
21861;DHT22;11095;48.066;8.540;2022-08-21T02:43:41;11.00;99.90
21861;DHT22;11095;48.066;8.540;2022-08-21T02:46:09;11.00;99.90
21861;DHT22;11095;48.066;8.540;2022-08-21T02:48:36;11.00;99.90
21861;DHT22;11095;48.066;8.540;2022-08-21T02:51:08;11.00;99.90
21861;DHT22;11095;48.066;8.540;2022-08-21T02:53:35;11.00;99.90
21861;DHT22;11095;48.066;8.540;2022-08-21T02:56:03;11.00;99.90
21861;DHT22;11095;48.066;8.540;2022-08-21T02:58:32;11.00;99.90
21861;DHT22;11095;48.066;8.540;2022-08-21T03:00:58;11.00;99.90
21861;DHT22;11095;48.066;8.540;2022-08-21T03:03:25;10.90;99.90
21861;DHT22;11095;48.066;8.540;2022-08-21T03:05:52;10.90;99.90
21861;DHT22;11095;48.066;8.540;2022-08-21T03:08:18;10.80;99.90
21861;DHT22;11095;48.066;8.540;2022-08-21T03:10:47;10.80;99.90
21861;DHT22;11095;48.066;8.540;2022-08-21T03:13:14;10.80;99.90
21861;DHT22;11095;48.066;8.540;2022-08-21T03:15:41;10.80;99.90
21861;DHT22;11095;48.066;8.540;2022-08-21T03:18:08;10.80;99.90
21861;DHT22;11095;48.066;8.540;2022-08-21T03:20:35;10.70;99.90
21861;DHT22;11095;48.066;8.540;2022-08-21T03:23:02;10.70;99.90
21861;DHT22;11095;48.066;8.540;2022-08-21T03:25:29;10.70;99.90
21861;DHT22;11095;48.066;8.540;2022-08-21T03:27:57;10.70;99.90
21861;DHT22;11095;48.066;8.540;2022-08-21T03:30:23;10.60;99.90
21861;DHT22;11095;48.066;8.540;2022-08-21T03:32:49;10.60;99.90
21861;DHT22;11095;48.066;8.540;2022-08-21T03:35:16;10.60;99.90
21861;DHT22;11095;48.066;8.540;2022-08-21T03:37:43;10.60;99.90
21861;DHT22;11095;48.066;8.540;2022-08-21T03:40:09;10.60;99.90
21861;DHT22;11095;48.066;8.540;2022-08-21T03:42:35;10.60;99.90
21861;DHT22;11095;48.066;8.540;2022-08-21T03:45:02;10.50;99.90
21861;DHT22;11095;48.066;8.540;2022-08-21T03:47:28;10.50;99.90
21861;DHT22;11095;48.066;8.540;2022-08-21T03:49:53;10.40;99.90
21861;DHT22;11095;48.066;8.540;2022-08-21T03:52:19;10.40;99.90
21861;DHT22;11095;48.066;8.540;2022-08-21T03:54:45;10.40;99.90
21861;DHT22;11095;48.066;8.540;2022-08-21T03:57:12;10.40;99.90
21861;DHT22;11095;48.066;8.540;2022-08-21T03:59:38;10.30;99.90
21861;DHT22;11095;48.066;8.540;2022-08-21T04:02:06;10.40;99.90
21861;DHT22;11095;48.066;8.540;2022-08-21T04:04:33;10.30;99.90
21861;DHT22;11095;48.066;8.540;2022-08-21T04:06:59;10.40;99.90
21861;DHT22;11095;48.066;8.540;2022-08-21T04:09:25;10.30;99.90
21861;DHT22;11095;48.066;8.540;2022-08-21T04:11:52;10.40;99.90
21861;DHT22;11095;48.066;8.540;2022-08-21T04:14:18;10.40;99.90
21861;DHT22;11095;48.066;8.540;2022-08-21T04:16:44;10.40;99.90
21861;DHT22;11095;48.066;8.540;2022-08-21T04:19:11;10.40;99.90
21861;DHT22;11095;48.066;8.540;2022-08-21T04:21:39;10.40;99.90
21861;DHT22;11095;48.066;8.540;2022-08-21T04:24:06;10.40;99.90
21861;DHT22;11095;48.066;8.540;2022-08-21T04:26:35;10.50;99.90
21861;DHT22;11095;48.066;8.540;2022-08-21T04:29:02;10.50;99.90
21861;DHT22;11095;48.066;8.540;2022-08-21T04:31:28;10.50;99.90
21861;DHT22;11095;48.066;8.540;2022-08-21T04:33:54;10.50;99.90
21861;DHT22;11095;48.066;8.540;2022-08-21T04:36:20;10.60;99.90
21861;DHT22;11095;48.066;8.540;2022-08-21T04:38:46;10.50;99.90
21861;DHT22;11095;48.066;8.540;2022-08-21T04:41:12;10.60;99.90
21861;DHT22;11095;48.066;8.540;2022-08-21T04:43:38;10.70;99.90
21861;DHT22;11095;48.066;8.540;2022-08-21T04:46:04;11.10;99.90
21861;DHT22;11095;48.066;8.540;2022-08-21T04:48:31;11.70;99.90
21861;DHT22;11095;48.066;8.540;2022-08-21T04:56:14;13.50;99.90
21861;DHT22;11095;48.066;8.540;2022-08-21T04:58:42;14.40;99.90
21861;DHT22;11095;48.066;8.540;2022-08-21T05:01:12;15.30;99.90
21861;DHT22;11095;48.066;8.540;2022-08-21T05:03:38;16.20;99.90
21861;DHT22;11095;48.066;8.540;2022-08-21T05:06:08;17.00;99.90
21861;DHT22;11095;48.066;8.540;2022-08-21T05:08:35;17.70;99.90
21861;DHT22;11095;48.066;8.540;2022-08-21T05:11:03;18.20;99.90
21861;DHT22;11095;48.066;8.540;2022-08-21T05:13:29;18.80;99.90
21861;DHT22;11095;48.066;8.540;2022-08-21T05:15:55;19.90;99.90
21861;DHT22;11095;48.066;8.540;2022-08-21T05:18:21;20.90;99.90
21861;DHT22;11095;48.066;8.540;2022-08-21T05:20:49;21.90;99.90
21861;DHT22;11095;48.066;8.540;2022-08-21T05:23:16;22.80;99.90
21861;DHT22;11095;48.066;8.540;2022-08-21T05:25:42;23.60;99.90
21861;DHT22;11095;48.066;8.540;2022-08-21T05:28:09;24.30;99.90
21861;DHT22;11095;48.066;8.540;2022-08-21T05:30:35;25.00;99.90
21861;DHT22;11095;48.066;8.540;2022-08-21T05:33:03;25.60;99.90
21861;DHT22;11095;48.066;8.540;2022-08-21T05:35:29;26.30;99.90
21861;DHT22;11095;48.066;8.540;2022-08-21T05:37:55;26.90;99.90
21861;DHT22;11095;48.066;8.540;2022-08-21T05:40:22;27.30;99.90
21861;DHT22;11095;48.066;8.540;2022-08-21T05:42:48;27.90;99.90
21861;DHT22;11095;48.066;8.540;2022-08-21T05:45:14;28.60;99.90
21861;DHT22;11095;48.066;8.540;2022-08-21T05:47:40;29.00;98.50
21861;DHT22;11095;48.066;8.540;2022-08-21T05:50:06;29.50;97.50
21861;DHT22;11095;48.066;8.540;2022-08-21T05:52:31;30.00;95.80
21861;DHT22;11095;48.066;8.540;2022-08-21T05:54:57;30.60;93.60
21861;DHT22;11095;48.066;8.540;2022-08-21T05:57:23;31.10;92.10
21861;DHT22;11095;48.066;8.540;2022-08-21T05:59:51;31.50;90.30
21861;DHT22;11095;48.066;8.540;2022-08-21T06:02:20;31.80;88.80
21861;DHT22;11095;48.066;8.540;2022-08-21T06:04:47;32.30;86.10
21861;DHT22;11095;48.066;8.540;2022-08-21T06:07:12;32.80;83.60
21861;DHT22;11095;48.066;8.540;2022-08-21T06:09:39;33.20;80.40
21861;DHT22;11095;48.066;8.540;2022-08-21T06:12:07;33.50;77.90
21861;DHT22;11095;48.066;8.540;2022-08-21T06:14:34;32.90;76.70
21861;DHT22;11095;48.066;8.540;2022-08-21T06:17:12;31.40;78.50
21861;DHT22;11095;48.066;8.540;2022-08-21T06:19:39;29.50;81.70
21861;DHT22;11095;48.066;8.540;2022-08-21T06:22:05;27.70;85.80
21861;DHT22;11095;48.066;8.540;2022-08-21T06:24:31;26.40;90.50
21861;DHT22;11095;48.066;8.540;2022-08-21T06:26:57;25.20;93.00
21861;DHT22;11095;48.066;8.540;2022-08-21T06:29:23;24.30;95.20
21861;DHT22;11095;48.066;8.540;2022-08-21T06:31:50;23.60;97.50
21861;DHT22;11095;48.066;8.540;2022-08-21T06:34:17;22.90;99.70
21861;DHT22;11095;48.066;8.540;2022-08-21T06:36:43;22.40;99.90
21861;DHT22;11095;48.066;8.540;2022-08-21T06:39:09;22.00;99.90
21861;DHT22;11095;48.066;8.540;2022-08-21T06:41:34;21.70;99.90
21861;DHT22;11095;48.066;8.540;2022-08-21T06:44:00;21.30;99.90
21861;DHT22;11095;48.066;8.540;2022-08-21T06:46:28;21.10;99.90
21861;DHT22;11095;48.066;8.540;2022-08-21T06:48:54;20.90;99.90
21861;DHT22;11095;48.066;8.540;2022-08-21T06:51:20;20.70;99.90
21861;DHT22;11095;48.066;8.540;2022-08-21T06:53:46;20.70;99.90
21861;DHT22;11095;48.066;8.540;2022-08-21T06:56:12;20.60;99.90
21861;DHT22;11095;48.066;8.540;2022-08-21T06:58:38;20.50;99.90
21861;DHT22;11095;48.066;8.540;2022-08-21T07:01:04;20.40;99.90
21861;DHT22;11095;48.066;8.540;2022-08-21T07:03:33;20.20;99.90
21861;DHT22;11095;48.066;8.540;2022-08-21T07:05:59;20.10;99.90
21861;DHT22;11095;48.066;8.540;2022-08-21T07:08:26;19.90;99.90
21861;DHT22;11095;48.066;8.540;2022-08-21T07:10:54;19.80;99.90
21861;DHT22;11095;48.066;8.540;2022-08-21T07:13:20;19.70;99.90
21861;DHT22;11095;48.066;8.540;2022-08-21T07:15:46;19.80;99.90
21861;DHT22;11095;48.066;8.540;2022-08-21T07:18:12;19.90;99.90
21861;DHT22;11095;48.066;8.540;2022-08-21T07:20:39;20.10;99.90
21861;DHT22;11095;48.066;8.540;2022-08-21T07:23:10;20.40;99.90
21861;DHT22;11095;48.066;8.540;2022-08-21T07:25:40;20.70;99.90
21861;DHT22;11095;48.066;8.540;2022-08-21T07:28:05;20.90;99.90
21861;DHT22;11095;48.066;8.540;2022-08-21T07:30:31;20.80;99.90
21861;DHT22;11095;48.066;8.540;2022-08-21T07:32:57;20.80;99.90
21861;DHT22;11095;48.066;8.540;2022-08-21T07:35:23;21.00;99.90
21861;DHT22;11095;48.066;8.540;2022-08-21T07:37:49;21.30;99.90
21861;DHT22;11095;48.066;8.540;2022-08-21T07:40:15;21.80;99.90
21861;DHT22;11095;48.066;8.540;2022-08-21T07:42:43;22.20;99.90
21861;DHT22;11095;48.066;8.540;2022-08-21T07:45:10;23.10;99.90
21861;DHT22;11095;48.066;8.540;2022-08-21T07:47:36;24.00;99.90
21861;DHT22;11095;48.066;8.540;2022-08-21T07:50:02;24.60;99.90
21861;DHT22;11095;48.066;8.540;2022-08-21T07:52:28;24.90;99.90
21861;DHT22;11095;48.066;8.540;2022-08-21T07:54:53;24.90;99.90
21861;DHT22;11095;48.066;8.540;2022-08-21T07:57:19;24.70;99.90
21861;DHT22;11095;48.066;8.540;2022-08-21T07:59:45;24.50;99.90
21861;DHT22;11095;48.066;8.540;2022-08-21T08:02:28;24.50;99.90
21861;DHT22;11095;48.066;8.540;2022-08-21T08:04:54;24.80;99.90
21861;DHT22;11095;48.066;8.540;2022-08-21T08:07:20;25.60;99.90
21861;DHT22;11095;48.066;8.540;2022-08-21T08:09:46;27.20;99.90
21861;DHT22;11095;48.066;8.540;2022-08-21T08:12:12;29.20;98.50
21861;DHT22;11095;48.066;8.540;2022-08-21T08:14:37;30.20;93.60
21861;DHT22;11095;48.066;8.540;2022-08-21T08:17:03;31.20;90.40
21861;DHT22;11095;48.066;8.540;2022-08-21T08:19:29;32.10;88.30
21861;DHT22;11095;48.066;8.540;2022-08-21T08:21:55;33.00;81.30
21861;DHT22;11095;48.066;8.540;2022-08-21T08:24:21;33.90;76.70
21861;DHT22;11095;48.066;8.540;2022-08-21T08:26:47;34.60;71.10
21861;DHT22;11095;48.066;8.540;2022-08-21T08:29:12;34.50;64.80
21861;DHT22;11095;48.066;8.540;2022-08-21T08:31:38;33.30;66.10
21861;DHT22;11095;48.066;8.540;2022-08-21T08:34:04;33.50;67.20
21861;DHT22;11095;48.066;8.540;2022-08-21T08:36:34;32.90;66.60
21861;DHT22;11095;48.066;8.540;2022-08-21T08:39:02;29.40;69.70
21861;DHT22;11095;48.066;8.540;2022-08-21T08:41:29;29.80;69.20
21861;DHT22;11095;48.066;8.540;2022-08-21T08:43:59;28.50;72.40
21861;DHT22;11095;48.066;8.540;2022-08-21T08:46:41;29.00;74.70
21861;DHT22;11095;48.066;8.540;2022-08-21T08:49:18;30.10;72.50
21861;DHT22;11095;48.066;8.540;2022-08-21T08:52:02;29.80;67.20
21861;DHT22;11095;48.066;8.540;2022-08-21T08:54:40;29.30;72.00
21861;DHT22;11095;48.066;8.540;2022-08-21T08:57:10;28.30;71.40
21861;DHT22;11095;48.066;8.540;2022-08-21T08:59:48;27.00;71.10
21861;DHT22;11095;48.066;8.540;2022-08-21T09:02:16;25.50;76.80
21861;DHT22;11095;48.066;8.540;2022-08-21T09:04:44;26.00;78.40
21861;DHT22;11095;48.066;8.540;2022-08-21T09:07:40;26.70;77.20
21861;DHT22;11095;48.066;8.540;2022-08-21T09:13:33;25.60;80.20
21861;DHT22;11095;48.066;8.540;2022-08-21T09:29:30;25.10;84.40
21861;DHT22;11095;48.066;8.540;2022-08-21T09:31:57;24.70;84.50
21861;DHT22;11095;48.066;8.540;2022-08-21T09:34:30;25.00;86.60
21861;DHT22;11095;48.066;8.540;2022-08-21T09:36:57;24.00;86.70
21861;DHT22;11095;48.066;8.540;2022-08-21T09:39:32;25.00;88.40
21861;DHT22;11095;48.066;8.540;2022-08-21T09:42:05;25.60;84.10
21861;DHT22;11095;48.066;8.540;2022-08-21T09:44:38;25.80;83.50
21861;DHT22;11095;48.066;8.540;2022-08-21T09:47:07;26.10;82.80
21861;DHT22;11095;48.066;8.540;2022-08-21T09:49:39;26.20;83.20
21861;DHT22;11095;48.066;8.540;2022-08-21T09:52:18;26.20;83.60
21861;DHT22;11095;48.066;8.540;2022-08-21T09:54:45;26.40;83.60
21861;DHT22;11095;48.066;8.540;2022-08-21T09:57:22;26.00;85.90
21861;DHT22;11095;48.066;8.540;2022-08-21T10:00:26;26.70;87.00
21861;DHT22;11095;48.066;8.540;2022-08-21T10:03:13;27.20;83.40
21861;DHT22;11095;48.066;8.540;2022-08-21T10:08:22;28.00;84.20
21861;DHT22;11095;48.066;8.540;2022-08-21T10:10:53;27.60;80.00
21861;DHT22;11095;48.066;8.540;2022-08-21T10:13:26;26.60;81.90
21861;DHT22;11095;48.066;8.540;2022-08-21T10:21:26;25.10;87.00
21861;DHT22;11095;48.066;8.540;2022-08-21T10:29:02;27.00;79.60
21861;DHT22;11095;48.066;8.540;2022-08-21T10:31:57;27.40;80.20
21861;DHT22;11095;48.066;8.540;2022-08-21T10:34:35;27.10;77.10
21861;DHT22;11095;48.066;8.540;2022-08-21T10:43:00;28.10;75.80
21861;DHT22;11095;48.066;8.540;2022-08-21T10:45:42;28.20;75.00
21861;DHT22;11095;48.066;8.540;2022-08-21T10:56:24;26.00;78.10
21861;DHT22;11095;48.066;8.540;2022-08-21T10:59:04;26.10;77.30
21861;DHT22;11095;48.066;8.540;2022-08-21T11:04:32;25.10;77.40
21861;DHT22;11095;48.066;8.540;2022-08-21T11:07:06;24.00;83.50
21861;DHT22;11095;48.066;8.540;2022-08-21T11:09:32;24.00;83.10
21861;DHT22;11095;48.066;8.540;2022-08-21T11:12:17;24.60;85.40
21861;DHT22;11095;48.066;8.540;2022-08-21T11:15:29;25.20;83.10
21861;DHT22;11095;48.066;8.540;2022-08-21T11:20:51;24.30;84.90
21861;DHT22;11095;48.066;8.540;2022-08-21T11:23:25;23.90;85.20
21861;DHT22;11095;48.066;8.540;2022-08-21T11:26:07;22.60;89.80
21861;DHT22;11095;48.066;8.540;2022-08-21T11:28:40;22.20;92.10
21861;DHT22;11095;48.066;8.540;2022-08-21T11:31:26;22.40;91.60
21861;DHT22;11095;48.066;8.540;2022-08-21T11:34:05;23.00;91.00
21861;DHT22;11095;48.066;8.540;2022-08-21T11:39:33;24.30;88.40
21861;DHT22;11095;48.066;8.540;2022-08-21T11:42:44;24.70;89.60
21861;DHT22;11095;48.066;8.540;2022-08-21T11:45:22;24.90;87.20
21861;DHT22;11095;48.066;8.540;2022-08-21T11:47:56;25.30;88.40
21861;DHT22;11095;48.066;8.540;2022-08-21T11:50:30;25.50;85.80
21861;DHT22;11095;48.066;8.540;2022-08-21T11:55:43;24.90;80.40
21861;DHT22;11095;48.066;8.540;2022-08-21T12:01:13;23.40;85.10
21861;DHT22;11095;48.066;8.540;2022-08-21T12:03:55;23.20;86.00
21861;DHT22;11095;48.066;8.540;2022-08-21T12:06:33;23.40;87.00
21861;DHT22;11095;48.066;8.540;2022-08-21T12:09:05;23.90;86.50
21861;DHT22;11095;48.066;8.540;2022-08-21T12:11:31;24.10;82.60
21861;DHT22;11095;48.066;8.540;2022-08-21T12:13:58;24.30;84.80
21861;DHT22;11095;48.066;8.540;2022-08-21T12:16:36;24.50;84.00
21861;DHT22;11095;48.066;8.540;2022-08-21T12:27:27;23.50;84.10
21861;DHT22;11095;48.066;8.540;2022-08-21T12:30:05;23.20;85.80
21861;DHT22;11095;48.066;8.540;2022-08-21T12:32:45;23.00;86.80
21861;DHT22;11095;48.066;8.540;2022-08-21T12:35:21;22.60;87.50
21861;DHT22;11095;48.066;8.540;2022-08-21T12:37:56;22.20;88.50
21861;DHT22;11095;48.066;8.540;2022-08-21T12:40:33;22.50;88.80
21861;DHT22;11095;48.066;8.540;2022-08-21T12:43:03;22.90;85.90
21861;DHT22;11095;48.066;8.540;2022-08-21T12:45:33;23.30;85.40
21861;DHT22;11095;48.066;8.540;2022-08-21T12:50:38;23.30;82.10
21861;DHT22;11095;48.066;8.540;2022-08-21T12:53:19;22.80;82.50
21861;DHT22;11095;48.066;8.540;2022-08-21T12:55:48;22.70;82.00
21861;DHT22;11095;48.066;8.540;2022-08-21T12:58:22;22.70;81.80
21861;DHT22;11095;48.066;8.540;2022-08-21T13:01:04;23.00;82.20
21861;DHT22;11095;48.066;8.540;2022-08-21T13:03:35;23.40;82.90
21861;DHT22;11095;48.066;8.540;2022-08-21T13:06:03;23.60;83.00
21861;DHT22;11095;48.066;8.540;2022-08-21T13:08:30;23.20;80.00
21861;DHT22;11095;48.066;8.540;2022-08-21T13:11:00;23.40;81.10
21861;DHT22;11095;48.066;8.540;2022-08-21T13:13:27;23.70;81.90
21861;DHT22;11095;48.066;8.540;2022-08-21T13:16:05;23.80;81.70
21861;DHT22;11095;48.066;8.540;2022-08-21T13:18:34;23.80;80.90
21861;DHT22;11095;48.066;8.540;2022-08-21T13:21:10;24.00;80.70
21861;DHT22;11095;48.066;8.540;2022-08-21T13:23:36;24.30;80.30
21861;DHT22;11095;48.066;8.540;2022-08-21T13:26:13;24.70;80.70
21861;DHT22;11095;48.066;8.540;2022-08-21T13:28:39;24.90;75.80
21861;DHT22;11095;48.066;8.540;2022-08-21T13:31:08;24.60;76.00
21861;DHT22;11095;48.066;8.540;2022-08-21T13:33:36;24.20;76.90
21861;DHT22;11095;48.066;8.540;2022-08-21T13:36:13;24.30;79.10
21861;DHT22;11095;48.066;8.540;2022-08-21T13:38:42;24.50;79.40
21861;DHT22;11095;48.066;8.540;2022-08-21T13:43:46;23.90;76.50
21861;DHT22;11095;48.066;8.540;2022-08-21T13:46:13;23.50;75.60
21861;DHT22;11095;48.066;8.540;2022-08-21T13:48:40;23.20;75.50
21861;DHT22;11095;48.066;8.540;2022-08-21T13:51:07;23.20;76.50
21861;DHT22;11095;48.066;8.540;2022-08-21T13:56:42;23.90;76.20
21861;DHT22;11095;48.066;8.540;2022-08-21T13:59:06;24.00;76.60
21861;DHT22;11095;48.066;8.540;2022-08-21T14:01:37;24.30;74.80
21861;DHT22;11095;48.066;8.540;2022-08-21T14:04:25;24.40;73.70
21861;DHT22;11095;48.066;8.540;2022-08-21T14:06:51;24.70;74.10
21861;DHT22;11095;48.066;8.540;2022-08-21T14:09:33;24.30;73.40
21861;DHT22;11095;48.066;8.540;2022-08-21T14:12:11;23.80;72.60
21861;DHT22;11095;48.066;8.540;2022-08-21T14:14:39;23.30;74.00
21861;DHT22;11095;48.066;8.540;2022-08-21T14:17:10;23.50;75.50
21861;DHT22;11095;48.066;8.540;2022-08-21T14:19:43;23.80;75.50
21861;DHT22;11095;48.066;8.540;2022-08-21T14:27:51;24.30;73.40
21861;DHT22;11095;48.066;8.540;2022-08-21T14:30:33;24.40;70.00
21861;DHT22;11095;48.066;8.540;2022-08-21T14:33:00;24.30;70.50
21861;DHT22;11095;48.066;8.540;2022-08-21T14:35:26;24.50;71.20
21861;DHT22;11095;48.066;8.540;2022-08-21T14:37:52;23.90;69.80
21861;DHT22;11095;48.066;8.540;2022-08-21T14:40:20;23.80;71.10
21861;DHT22;11095;48.066;8.540;2022-08-21T14:42:47;23.90;72.90
21861;DHT22;11095;48.066;8.540;2022-08-21T14:45:28;24.20;72.80
21861;DHT22;11095;48.066;8.540;2022-08-21T14:47:55;24.30;70.10
21861;DHT22;11095;48.066;8.540;2022-08-21T14:50:21;24.00;68.00
21861;DHT22;11095;48.066;8.540;2022-08-21T14:52:47;23.60;69.20
21861;DHT22;11095;48.066;8.540;2022-08-21T14:55:14;23.90;70.50
21861;DHT22;11095;48.066;8.540;2022-08-21T14:57:42;24.20;69.20
21861;DHT22;11095;48.066;8.540;2022-08-21T15:00:11;24.30;67.60
21861;DHT22;11095;48.066;8.540;2022-08-21T15:02:37;24.20;67.30
21861;DHT22;11095;48.066;8.540;2022-08-21T15:05:03;23.90;67.60
21861;DHT22;11095;48.066;8.540;2022-08-21T15:07:29;23.70;67.40
21861;DHT22;11095;48.066;8.540;2022-08-21T15:09:55;23.50;66.60
21861;DHT22;11095;48.066;8.540;2022-08-21T15:12:21;23.50;65.60
21861;DHT22;11095;48.066;8.540;2022-08-21T15:14:48;23.70;66.60
21861;DHT22;11095;48.066;8.540;2022-08-21T15:17:14;24.10;67.50
21861;DHT22;11095;48.066;8.540;2022-08-21T15:19:39;24.50;65.40
21861;DHT22;11095;48.066;8.540;2022-08-21T15:22:05;24.40;63.50
21861;DHT22;11095;48.066;8.540;2022-08-21T15:24:31;24.50;63.00
21861;DHT22;11095;48.066;8.540;2022-08-21T15:26:59;24.40;62.60
21861;DHT22;11095;48.066;8.540;2022-08-21T15:29:26;24.40;63.70
21861;DHT22;11095;48.066;8.540;2022-08-21T15:32:00;24.70;64.10
21861;DHT22;11095;48.066;8.540;2022-08-21T15:34:28;24.60;62.60
21861;DHT22;11095;48.066;8.540;2022-08-21T15:36:56;24.60;62.60
21861;DHT22;11095;48.066;8.540;2022-08-21T15:39:22;24.30;64.00
21861;DHT22;11095;48.066;8.540;2022-08-21T15:41:48;23.90;65.00
21861;DHT22;11095;48.066;8.540;2022-08-21T15:44:14;24.00;65.30
21861;DHT22;11095;48.066;8.540;2022-08-21T15:46:40;23.90;65.40
21861;DHT22;11095;48.066;8.540;2022-08-21T15:49:07;23.80;65.70
21861;DHT22;11095;48.066;8.540;2022-08-21T15:51:33;23.80;65.20
21861;DHT22;11095;48.066;8.540;2022-08-21T15:53:59;23.80;64.00
21861;DHT22;11095;48.066;8.540;2022-08-21T15:56:46;23.90;65.10
21861;DHT22;11095;48.066;8.540;2022-08-21T15:59:17;24.20;65.30
21861;DHT22;11095;48.066;8.540;2022-08-21T16:01:43;24.40;64.70
21861;DHT22;11095;48.066;8.540;2022-08-21T16:04:10;24.60;62.80
21861;DHT22;11095;48.066;8.540;2022-08-21T16:06:39;24.70;64.40
21861;DHT22;11095;48.066;8.540;2022-08-21T16:09:05;24.50;65.00
21861;DHT22;11095;48.066;8.540;2022-08-21T16:11:30;24.60;64.40
21861;DHT22;11095;48.066;8.540;2022-08-21T16:13:56;24.80;64.50
21861;DHT22;11095;48.066;8.540;2022-08-21T16:16:23;24.90;64.80
21861;DHT22;11095;48.066;8.540;2022-08-21T16:18:50;24.90;64.80
21861;DHT22;11095;48.066;8.540;2022-08-21T16:21:17;24.80;65.70
21861;DHT22;11095;48.066;8.540;2022-08-21T16:23:43;24.30;63.70
21861;DHT22;11095;48.066;8.540;2022-08-21T16:26:10;24.00;65.50
21861;DHT22;11095;48.066;8.540;2022-08-21T16:28:38;23.90;64.40
21861;DHT22;11095;48.066;8.540;2022-08-21T16:31:05;23.70;65.20
21861;DHT22;11095;48.066;8.540;2022-08-21T16:33:38;23.70;64.40
21861;DHT22;11095;48.066;8.540;2022-08-21T16:36:05;23.70;64.10
21861;DHT22;11095;48.066;8.540;2022-08-21T16:38:32;23.80;64.00
21861;DHT22;11095;48.066;8.540;2022-08-21T16:40:59;23.90;63.40
21861;DHT22;11095;48.066;8.540;2022-08-21T16:43:26;23.80;63.00
21861;DHT22;11095;48.066;8.540;2022-08-21T16:45:54;23.70;62.40
21861;DHT22;11095;48.066;8.540;2022-08-21T16:48:21;23.80;63.50
21861;DHT22;11095;48.066;8.540;2022-08-21T16:50:47;23.70;62.80
21861;DHT22;11095;48.066;8.540;2022-08-21T16:53:13;23.60;63.40
21861;DHT22;11095;48.066;8.540;2022-08-21T16:55:39;23.50;65.90
21861;DHT22;11095;48.066;8.540;2022-08-21T16:58:10;23.40;66.90
21861;DHT22;11095;48.066;8.540;2022-08-21T17:00:37;23.20;67.70
21861;DHT22;11095;48.066;8.540;2022-08-21T17:03:03;23.20;66.90
21861;DHT22;11095;48.066;8.540;2022-08-21T17:05:28;23.30;66.90
21861;DHT22;11095;48.066;8.540;2022-08-21T17:07:54;23.20;65.70